• Join FlightAware (Why Join?)
  • Login
  • US Flag 
09:17AM EDT


 

Airport Tracker/Info


-or-


 

Live Flight TrackerFlight Track Log ✈ AAL832 ✈ 27-Jun-2013 ✈ KLAX - KORD

Flight Track Log - Related Links

Times and Time Zones

All times are in EDT time to prevent confusion due to time zone crossing. See the AAL832 flight status page for this flight to view local times or setup timezone preferences in your user account.

Time Position Orientation Groundspeed Altitude Reporting Facility
EDT Latitude Longitude Course Direction KTS MPH feet Rate Location/Type
12:33PM 33.9430 -118.4720 264° West 192 221 1,600  Level FlightAware
12:33PM 33.9420 -118.4890 266° West 202 232 2,000 1,320 Climbing FlightAware
12:34PM 33.9400 -118.5180 265° West 230 265 2,400 1,380 Climbing FlightAware
12:34PM 33.9360 -118.5670 264° West 259 298 3,400 2,040 Climbing FlightAware
12:35PM 33.9320 -118.5970 261° West 259 298 4,300 2,280 Climbing FlightAware
12:36PM 33.8550 -118.5910 176° South 270 311 7,400 2,160 Climbing FlightAware
12:37PM 33.8670 -118.5440 73° East 273 314 8,700 2,100 Climbing FlightAware
12:37PM 33.8860 -118.5120 54° Northeast 283 326 9,500 1,740 Climbing FlightAware
12:38PM 33.9200 -118.4550 54° Northeast 306 352 10,600 2,100 Climbing FlightAware
12:38PM 33.9550 -118.3940 55° Northeast 302 348 12,500 2,520 Climbing FlightAware
12:39PM 33.9880 -118.3350 56° Northeast 303 349 14,200 1,920 Climbing FlightAware
12:40PM 34.0210 -118.2780 55° Northeast 333 383 15,100 1,020 Climbing FlightAware
12:40PM 34.0600 -118.2080 56° Northeast 375 432 15,700 1,380 Climbing FlightAware
12:41PM 34.1010 -118.1360 55° Northeast 385 443 17,100 2,040 Climbing FlightAware
12:42PM 34.1560 -118.0390 56° Northeast 403 464 18,600 2,100 Climbing FlightAware
12:43PM 34.2050 -117.9520 56° Northeast 406 467 20,300 1,860 Climbing FlightAware
12:43PM 34.2430 -117.8850 56° Northeast 413 475 21,300 1,560 Climbing FlightAware
12:44PM 34.2940 -117.7930 56° Northeast 424 488 22,500 1,680 Climbing FlightAware
12:45PM 34.3310 -117.7260 56° Northeast 430 495 23,500 1,500 Climbing FlightAware
12:46PM 34.4190 -117.5680 56° Northeast 444 511 25,400 1,380 Climbing FlightAware
12:47PM 34.4660 -117.4850 56° Northeast 451 519 26,300 1,380 Climbing FlightAware
12:47PM 34.5090 -117.4070 56° Northeast 454 522 27,200 1,440 Climbing FlightAware
12:48PM 34.5670 -117.3010 56° Northeast 456 525 28,400 1,320 Climbing FlightAware
12:49PM 34.6150 -117.2150 56° Northeast 459 528 29,200 1,440 Climbing FlightAware
12:49PM 34.6630 -117.1290 56° Northeast 455 524 30,400 1,440 Climbing FlightAware
12:50PM 34.7100 -117.0420 57° Northeast 457 526 31,200 1,080 Climbing FlightAware
12:51PM 34.7570 -116.9560 56° Northeast 458 527 31,900 1,080 Climbing FlightAware
12:52PM 34.8120 -116.8550 56° Northeast 460 529 32,800 1,080 Climbing FlightAware
12:52PM 34.8570 -116.7730 56° Northeast 459 528 33,500 1,140 Climbing FlightAware
12:53PM 34.9090 -116.6780 56° Northeast 457 526 34,400 1,020 Climbing FlightAware
12:54PM 34.9620 -116.5830 56° Northeast 460 529 35,000 780 Climbing FlightAware
12:54PM 35.0150 -116.5130 47° Northeast 462 532 35,500 780 Climbing FlightAware
12:55PM 35.0800 -116.4330 45° Northeast 463 533 36,100 720 Climbing FlightAware
12:56PM 35.1470 -116.3490 46° Northeast 462 532 36,600 600 Climbing FlightAware
12:56PM 35.2040 -116.2770 46° Northeast 461 531 37,000 240 Climbing FlightAware
12:57PM 35.2700 -116.1940 46° Northeast 462 532 37,000  Level FlightAware
12:58PM 35.3320 -116.1160 46° Northeast 462 532 37,000  Level FlightAware
12:58PM 35.3930 -116.0390 46° Northeast 461 531 37,000  Level FlightAware
12:59PM 35.4600 -115.9540 46° Northeast 460 529 37,000  Level FlightAware
01:03PM 35.7950 -115.5270 46° Northeast 456 525 37,000  Level FlightAware
01:04PM 35.8540 -115.4520 46° Northeast 458 527 37,000  Level FlightAware
01:04PM 35.9060 -115.3850 46° Northeast 458 527 37,000  Level FlightAware
01:05PM 36.0130 -115.2460 46° Northeast 461 531 37,000  Level FlightAware
01:07PM 36.1160 -115.1130 46° Northeast 463 533 37,000  Level FlightAware
01:07PM 36.1770 -115.0370 45° Northeast 463 533 37,000  Level FlightAware
01:08PM 36.2490 -114.9460 46° Northeast 464 534 37,000  Level FlightAware
01:09PM 36.3060 -114.8730 46° Northeast 463 533 37,000  Level FlightAware
01:09PM 36.3710 -114.7900 46° Northeast 463 533 37,000  Level FlightAware
01:10PM 36.4360 -114.7050 46° Northeast 462 532 37,000  Level FlightAware
01:12PM 36.5770 -114.5210 46° Northeast 459 528 37,000  Level FlightAware
01:13PM 36.6360 -114.4430 47° Northeast 458 527 37,000  Level FlightAware
01:13PM 36.7000 -114.3590 46° Northeast 458 527 37,000  Level FlightAware
01:14PM 36.7620 -114.2730 48° Northeast 456 525 37,000  Level FlightAware
01:15PM 36.8010 -114.1940 58° Northeast 456 525 37,000  Level FlightAware
01:15PM 36.8550 -114.0840 58° Northeast 459 528 37,000  Level FlightAware
01:16PM 36.8990 -113.9930 59° Northeast 460 529 37,000  Level FlightAware
01:17PM 36.9380 -113.9110 59° Northeast 460 529 37,000  Level FlightAware
01:17PM 36.9910 -113.7990 59° Northeast 460 529 37,000  Level FlightAware
01:18PM 37.0360 -113.7050 59° Northeast 458 527 37,000  Level FlightAware
01:19PM 37.0820 -113.6070 60° Northeast 456 525 37,000  Level FlightAware
01:19PM 37.1210 -113.5270 59° Northeast 454 522 37,000  Level FlightAware
01:20PM 37.1670 -113.4300 59° Northeast 452 520 37,000  Level FlightAware
01:21PM 37.2060 -113.3480 59° Northeast 452 520 37,000  Level FlightAware
01:22PM 37.2400 -113.2750 60° Northeast 452 520 37,000  Level FlightAware
01:22PM 37.2840 -113.1830 59° Northeast 452 520 37,000  Level FlightAware
01:24PM 37.3510 -113.0430 59° Northeast 452 520 37,000  Level FlightAware
01:24PM 37.3820 -112.9780 59° Northeast 452 520 37,000  Level FlightAware
01:25PM 37.4260 -112.8860 59° Northeast 452 520 37,000  Level FlightAware
01:26PM 37.4720 -112.7900 59° Northeast 452 520 37,000  Level FlightAware
01:26PM 37.5070 -112.7170 59° Northeast 452 520 37,000  Level FlightAware
01:27PM 37.5490 -112.6290 59° Northeast 452 520 37,000  Level FlightAware
01:28PM 37.5820 -112.5600 59° Northeast 452 520 37,000  Level FlightAware
01:29PM 37.6260 -112.4670 59° Northeast 452 520 37,000  Level FlightAware
01:29PM 37.6590 -112.3980 59° Northeast 452 520 37,000  Level FlightAware
01:30PM 37.7736 -112.1581 59° Northeast 451 519 37,000  Level Denver Center
01:35PM 38.1827 -111.4430 59° Northeast 447 514 37,000  Level FlightAware ADS-B
01:36PM 38.2461 -111.3300 54° Northeast 447 514 37,000  Level FlightAware ADS-B
01:37PM 38.3020 -111.2320 54° Northeast 445 512 37,000  Level FlightAware
01:37PM 38.3211 -111.1970 55° Northeast 447 514 37,000  Level FlightAware ADS-B
01:38PM 38.3604 -111.1270 54° Northeast 447 514 37,000  Level FlightAware ADS-B
01:38PM 38.3995 -111.0570 55° Northeast 447 514 37,000  Level FlightAware ADS-B
01:39PM 38.4530 -110.9610 55° Northeast 447 514 37,000  Level FlightAware
01:40PM 38.5320 -110.8190 55° Northeast 449 517 37,000  Level FlightAware
01:41PM 38.5850 -110.7240 54° Northeast 450 518 37,000  Level FlightAware
01:42PM 38.6370 -110.6300 55° Northeast 450 518 37,000  Level FlightAware
01:42PM 38.6890 -110.5340 55° Northeast 450 518 37,000  Level FlightAware
01:43PM 38.7340 -110.4520 55° Northeast 450 518 37,000  Level FlightAware
01:44PM 38.7830 -110.3630 55° Northeast 449 517 37,000  Level FlightAware
01:44PM 38.8390 -110.2620 55° Northeast 448 516 37,000  Level FlightAware
01:48PM 39.0320 -109.9080 55° Northeast 448 516 37,000  Level FlightAware
01:48PM 39.1060 -109.7670 56° Northeast 442 509 37,000  Level FlightAware
01:49PM 39.1500 -109.6860 55° Northeast 442 509 37,000  Level FlightAware
01:51PM 39.2830 -109.4370 55° Northeast 442 509 37,000  Level FlightAware
01:52PM 39.3410 -109.3280 55° Northeast 444 511 37,000  Level FlightAware
01:52PM 39.3970 -109.2200 56° Northeast 445 512 37,000  Level FlightAware
01:53PM 39.4400 -109.1400 55° Northeast 447 514 37,000  Level FlightAware
01:54PM 39.4940 -109.0360 56° Northeast 449 517 37,000  Level FlightAware
01:54PM 39.5380 -108.9540 55° Northeast 450 518 37,000  Level FlightAware
01:55PM 39.5860 -108.8610 56° Northeast 452 520 37,000  Level FlightAware
01:56PM 39.6420 -108.7540 56° Northeast 452 520 37,000  Level FlightAware
01:57PM 39.6940 -108.6530 56° Northeast 452 520 37,000  Level FlightAware
01:57PM 39.7330 -108.5780 56° Northeast 452 520 37,000  Level FlightAware
01:58PM 39.7870 -108.4740 56° Northeast 451 519 37,000  Level FlightAware
01:59PM 39.8410 -108.3680 56° Northeast 450 518 37,000  Level FlightAware
01:59PM 39.8790 -108.2940 56° Northeast 450 518 37,000  Level FlightAware
02:03PM 40.1040 -107.8410 57° Northeast 451 519 37,000  Level FlightAware
02:03PM 40.1560 -107.7240 60° Northeast 452 520 37,000  Level FlightAware
02:04PM 40.1960 -107.6340 60° Northeast 453 521 37,000  Level FlightAware
02:06PM 40.3050 -107.3820 60° Northeast 455 524 37,000  Level FlightAware
02:07PM 40.3730 -107.2250 60° Northeast 455 524 37,000  Level FlightAware
02:08PM 40.4160 -107.1260 60° Northeast 455 524 37,000  Level FlightAware
02:08PM 40.4510 -107.0470 60° Northeast 455 524 37,000  Level FlightAware
02:09PM 40.4990 -106.9340 61° Northeast 456 525 37,000  Level FlightAware
02:10PM 40.5460 -106.8230 61° Northeast 455 524 37,000  Level FlightAware
02:10PM 40.5900 -106.7180 61° Northeast 454 522 37,000  Level FlightAware
02:11PM 40.6320 -106.6240 59° Northeast 454 522 37,000  Level FlightAware
02:12PM 40.6650 -106.5490 60° Northeast 454 522 37,000  Level FlightAware
02:13PM 40.7090 -106.4470 60° Northeast 454 522 37,000  Level FlightAware
02:13PM 40.7660 -106.3030 62° Northeast 454 522 37,000  Level FlightAware
02:14PM 40.8120 -106.1920 61° Northeast 456 525 37,000  Level FlightAware
02:17PM 40.9890 -105.7150 64° Northeast 465 535 37,000  Level FlightAware
02:18PM 41.0200 -105.5850 72° East 462 532 37,000  Level FlightAware
02:19PM 41.0470 -105.4750 72° East 460 529 37,000  Level FlightAware
02:19PM 41.0730 -105.3710 72° East 459 528 37,000  Level FlightAware
02:20PM 41.1174 -105.1860 72° East 461 531 37,000  Level FlightAware ADS-B
02:21PM 41.1368 -105.1060 72° East 460 529 37,000  Level FlightAware ADS-B
02:21PM 41.1569 -105.0220 72° East 460 529 37,000  Level FlightAware ADS-B
02:22PM 41.1762 -104.9420 72° East 460 529 37,000  Level FlightAware ADS-B
02:22PM 41.1958 -104.8590 73° East 459 528 37,000  Level FlightAware ADS-B
02:23PM 41.2162 -104.7730 72° East 460 529 37,000  Level FlightAware ADS-B
02:24PM 41.2354 -104.6920 72° East 461 531 37,000  Level FlightAware ADS-B
02:24PM 41.2568 -104.6010 73° East 460 529 37,000  Level FlightAware ADS-B
02:25PM 41.2764 -104.5170 73° East 461 531 37,000  Level FlightAware ADS-B
02:25PM 41.2959 -104.4340 73° East 460 529 37,000  Level FlightAware ADS-B
02:26PM 41.3149 -104.3520 73° East 459 528 37,000  Level FlightAware ADS-B
02:26PM 41.3338 -104.2710 73° East 457 526 37,000  Level FlightAware ADS-B
02:27PM 41.3531 -104.1880 73° East 456 525 37,000  Level FlightAware ADS-B
02:27PM 41.3721 -104.1060 73° East 457 526 37,000  Level FlightAware ADS-B
02:28PM 41.3909 -104.0240 73° East 457 526 37,000  Level FlightAware ADS-B
02:28PM 41.4096 -103.9420 73° East 459 528 37,000  Level FlightAware ADS-B
02:29PM 41.4280 -103.8610 73° East 460 529 37,000  Level FlightAware ADS-B
02:29PM 41.4468 -103.7780 73° East 460 529 37,000  Level FlightAware ADS-B
02:30PM 41.4653 -103.6970 73° East 461 531 37,000  Level FlightAware ADS-B
02:30PM 41.4839 -103.6140 73° East 460 529 37,000  Level FlightAware ADS-B
02:31PM 41.5029 -103.5290 73° East 459 528 37,000  Level FlightAware ADS-B
02:31PM 41.5211 -103.4480 73° East 459 528 37,000  Level FlightAware ADS-B
02:32PM 41.5401 -103.3620 74° East 459 528 37,000  Level FlightAware ADS-B
02:32PM 41.5582 -103.2810 73° East 458 527 37,000  Level FlightAware ADS-B
02:33PM 41.5763 -103.1990 74° East 458 527 37,000  Level FlightAware ADS-B
02:33PM 41.5951 -103.1140 73° East 459 528 37,000  Level FlightAware ADS-B
02:34PM 41.6161 -103.0180 74° East 458 527 37,000  Level FlightAware ADS-B
02:34PM 41.6340 -102.9360 74° East 456 525 37,000  Level FlightAware ADS-B
02:35PM 41.6518 -102.8550 74° East 456 525 37,000  Level FlightAware ADS-B
02:35PM 41.6726 -102.7590 74° East 456 525 37,000  Level FlightAware ADS-B
02:36PM 41.6906 -102.6750 74° East 456 525 37,000  Level FlightAware ADS-B
02:37PM 41.7120 -102.5750 74° East 457 526 37,000  Level FlightAware ADS-B
02:37PM 41.7298 -102.4920 74° East 458 527 37,000  Level FlightAware ADS-B
02:38PM 41.7478 -102.4090 74° East 460 529 37,000  Level FlightAware ADS-B
02:38PM 41.7654 -102.3250 74° East 461 531 37,000  Level FlightAware ADS-B
02:39PM 41.7857 -102.2280 74° East 461 531 37,000  Level FlightAware ADS-B
02:39PM 41.8045 -102.1390 74° East 462 532 37,000  Level FlightAware ADS-B
02:40PM 41.8200 -102.0660 74° East 462 532 37,000  Level FlightAware
02:40PM 41.8362 -101.9890 74° East 463 533 37,000  Level FlightAware ADS-B
02:41PM 41.8537 -101.9050 74° East 465 535 37,000  Level FlightAware ADS-B
02:41PM 41.8774 -101.7900 74° East 466 536 37,000  Level FlightAware ADS-B
02:42PM 41.8946 -101.7060 75° East 466 536 37,000  Level FlightAware ADS-B
02:42PM 41.9111 -101.6294 75° East 464 534 37,000  Level Minneapolis Center
02:43PM 41.9392 -101.4897 75° East 462 532 37,000  Level Denver Center
02:44PM 41.9725 -101.3278 74° East 467 537 37,000  Level Denver Center
02:45PM 42.0108 -101.1403 75° East 465 535 37,000  Level Denver Center
02:51PM 42.2072 -100.1260 75° East 474 545 37,000  Level FlightAware ADS-B
02:52PM 42.2238 -100.0390 76° East 476 548 37,000  Level FlightAware ADS-B
02:52PM 42.2402 -99.9520 76° East 475 547 37,000  Level FlightAware ADS-B
02:53PM 42.2565 -99.8649 76° East 477 549 37,000  Level FlightAware ADS-B
02:53PM 42.2727 -99.7780 76° East 478 550 37,000  Level FlightAware ADS-B
02:54PM 42.2889 -99.6909 76° East 478 550 37,000  Level FlightAware ADS-B
02:54PM 42.3051 -99.6028 76° East 478 550 37,000  Level FlightAware ADS-B
02:55PM 42.3215 -99.5135 76° East 478 550 37,000  Level FlightAware ADS-B
02:55PM 42.3375 -99.4265 76° East 478 550 37,000  Level FlightAware ADS-B
02:56PM 42.3731 -99.2321 76° East 477 549 37,000  Level FlightAware ADS-B
02:57PM 42.3904 -99.1363 76° East 478 550 37,000  Level FlightAware ADS-B
02:57PM 42.4060 -99.0498 76° East 478 550 37,000  Level FlightAware ADS-B
02:58PM 42.4216 -98.9629 76° East 477 549 37,000  Level FlightAware ADS-B
02:58PM 42.4373 -98.8748 76° East 478 550 37,000  Level FlightAware ADS-B
02:59PM 42.4527 -98.7877 76° East 478 550 37,000  Level FlightAware ADS-B
03:01PM 42.4818 -98.4623 83° East 485 558 37,000  Level FlightAware ADS-B
03:01PM 42.4863 -98.3696 86° East 484 557 37,000  Level FlightAware ADS-B
03:02PM 42.4907 -98.2781 86° East 485 558 37,000  Level FlightAware ADS-B
03:02PM 42.4950 -98.1874 86° East 485 558 37,000  Level FlightAware ADS-B
03:03PM 42.4992 -98.0955 86° East 485 558 37,000  Level FlightAware ADS-B
03:03PM 42.5035 -98.0032 86° East 484 557 37,000  Level FlightAware ADS-B
03:04PM 42.5076 -97.9123 86° East 484 557 37,000  Level FlightAware ADS-B
03:04PM 42.5116 -97.8218 87° East 484 557 37,000  Level FlightAware ADS-B
03:05PM 42.5155 -97.7306 87° East 484 557 37,000  Level FlightAware ADS-B
03:05PM 42.5193 -97.6402 87° East 485 558 37,000  Level FlightAware ADS-B
03:06PM 42.5231 -97.5483 87° East 485 558 37,000  Level FlightAware ADS-B
03:06PM 42.5270 -97.4550 87° East 484 557 37,000  Level FlightAware ADS-B
03:07PM 42.5307 -97.3625 87° East 485 558 37,000  Level FlightAware ADS-B
03:07PM 42.5345 -97.2659 87° East 486 559 37,000  Level FlightAware ADS-B
03:08PM 42.5380 -97.1744 87° East 487 560 37,000  Level FlightAware ADS-B
03:08PM 42.5415 -97.0825 87° East 488 562 37,000  Level FlightAware ADS-B
03:09PM 42.5449 -96.9913 87° East 489 563 37,000  Level FlightAware ADS-B
03:09PM 42.5481 -96.8989 87° East 489 563 37,000  Level FlightAware ADS-B
03:10PM 42.5516 -96.8010 87° East 490 564 37,000  Level FlightAware ADS-B
03:10PM 42.5548 -96.7036 87° East 490 564 37,000  Level FlightAware ADS-B
03:11PM 42.5579 -96.6109 87° East 489 563 37,000  Level FlightAware ADS-B
03:12PM 42.5623 -96.4794 87° East 489 563 37,000  Level FlightAware ADS-B
03:12PM 42.5652 -96.3878 88° East 488 562 37,000  Level FlightAware ADS-B
03:13PM 42.5682 -96.2902 88° East 487 560 37,000  Level FlightAware ADS-B
03:13PM 42.5709 -96.1980 88° East 487 560 37,000  Level FlightAware ADS-B
03:14PM 42.5736 -96.1063 88° East 485 558 37,000  Level FlightAware ADS-B
03:14PM 42.5762 -96.0135 88° East 485 558 37,000  Level FlightAware ADS-B
03:15PM 42.5788 -95.9214 88° East 486 559 37,000  Level FlightAware ADS-B
03:15PM 42.5813 -95.8276 88° East 487 560 37,000  Level FlightAware ADS-B
03:16PM 42.5837 -95.7346 88° East 488 562 37,000  Level FlightAware ADS-B
03:16PM 42.5860 -95.6428 88° East 489 563 37,000  Level FlightAware ADS-B
03:17PM 42.5882 -95.5509 88° East 490 564 37,000  Level FlightAware ADS-B
03:17PM 42.5903 -95.4580 88° East 491 565 37,000  Level FlightAware ADS-B
03:18PM 42.5923 -95.3650 88° East 493 567 37,000  Level FlightAware ADS-B
03:18PM 42.5943 -95.2714 88° East 493 567 37,000  Level FlightAware ADS-B
03:19PM 42.5963 -95.1754 88° East 494 568 37,000  Level FlightAware ADS-B
03:19PM 42.5982 -95.0816 88° East 495 570 37,000  Level FlightAware ADS-B
03:20PM 42.6001 -94.9877 88° East 495 570 37,000  Level FlightAware ADS-B
03:20PM 42.6025 -94.8625 88° East 495 570 37,000  Level FlightAware ADS-B
03:21PM 42.6041 -94.7691 89° East 495 570 37,000  Level FlightAware ADS-B
03:21PM 42.6056 -94.6744 89° East 495 570 37,000  Level FlightAware ADS-B
03:22PM 42.6071 -94.5809 89° East 495 570 37,000  Level FlightAware ADS-B
03:22PM 42.6086 -94.4873 89° East 496 571 37,000  Level FlightAware ADS-B
03:23PM 42.6098 -94.3920 89° East 496 571 37,000  Level FlightAware ADS-B
03:24PM 42.6108 -94.2949 89° East 497 572 37,000  Level FlightAware ADS-B
03:24PM 42.6082 -94.2008 92° East 501 577 37,000  Level FlightAware ADS-B
03:25PM 42.6053 -94.1038 92° East 503 579 37,000  Level FlightAware ADS-B
03:25PM 42.6022 -94.0068 92° East 504 580 37,000  Level FlightAware ADS-B
03:26PM 42.5992 -93.9103 92° East 506 582 37,000  Level FlightAware ADS-B
03:26PM 42.5959 -93.8105 93° East 508 585 37,000  Level FlightAware ADS-B
03:27PM 42.5923 -93.7033 93° East 510 587 37,000  Level FlightAware ADS-B
03:28PM 42.5840 -93.4640 93° East 512 589 37,000  Level FlightAware
03:29PM 42.5780 -93.3140 93° East 513 590 37,000  Level FlightAware
03:29PM 42.5730 -93.1760 93° East 513 590 37,000 -180 Level FlightAware
03:33PM 42.5420 -92.4440 93° East 516 594 36,200 -360 Descending FlightAware
03:34PM 42.5340 -92.2760 94° East 520 598 35,400 -1,080 Descending FlightAware
03:36PM 42.5250 -91.9220 92° East 521 600 33,600 -960 Descending FlightAware
03:37PM 42.5260 -91.7930 89° East 522 601 33,000 -1,020 Descending FlightAware
03:37PM 42.5260 -91.6440 90° East 513 590 32,200 -1,080 Descending FlightAware
03:38PM 42.5270 -91.5160 89° East 507 583 31,500 -1,080 Descending FlightAware
03:39PM 42.5270 -91.3930 90° East 502 578 30,800 -1,020 Descending FlightAware
03:41PM 42.5270 -91.0420 90° East 492 566 28,900 -1,020 Descending FlightAware
03:41PM 42.5270 -90.9010 90° East 487 560 28,100 -1,020 Descending FlightAware
03:42PM 42.5260 -90.7840 91° East 486 559 27,500 -900 Descending FlightAware
03:43PM 42.5260 -90.6640 90° East 480 552 27,000 -360 Descending FlightAware
03:43PM 42.5250 -90.5180 90° East 478 550 27,000  Level FlightAware
03:44PM 42.5240 -90.3980 91° East 478 550 27,000  Level FlightAware
03:45PM 42.5230 -90.2920 91° East 477 549 27,000 -300 Level FlightAware
03:45PM 42.5220 -90.1460 90° East 507 583 26,600 -720 Descending FlightAware
03:46PM 42.5130 -90.0060 95° East 518 596 26,000 -960 Descending FlightAware
03:47PM 42.5000 -89.8620 97° East 509 586 25,200 -1,020 Descending FlightAware
03:48PM 42.4900 -89.7380 96° East 505 581 24,600 -960 Descending FlightAware
03:48PM 42.4800 -89.6290 97° East 495 570 24,000 -1,440 Descending FlightAware
03:49PM 42.4670 -89.4810 97° East 478 550 22,700 -2,160 Descending FlightAware
03:50PM 42.4580 -89.3770 97° East 461 531 21,000 -2,880 Descending FlightAware
03:50PM 42.4490 -89.2860 98° East 452 520 19,400 -2,820 Descending FlightAware
03:51PM 42.4380 -89.1600 97° East 434 499 17,400 -2,760 Descending FlightAware
03:52PM 42.4290 -89.0590 97° East 420 483 15,600 -2,940 Descending FlightAware
03:52PM 42.4190 -88.9510 97° East 413 475 13,600 -2,880 Descending FlightAware
03:53PM 42.4080 -88.8370 97° East 404 465 11,500 -2,400 Descending FlightAware
03:54PM 42.3980 -88.7380 98° East 398 458 10,200 -1,080 Descending FlightAware
03:54PM 42.3890 -88.6450 97° East 395 455 10,100 -120 Descending FlightAware
03:55PM 42.3790 -88.5410 97° East 392 451 10,100  Level FlightAware
03:56PM 42.3570 -88.4390 106° East 393 452 10,100  Level FlightAware
03:56PM 42.3150 -88.3460 121° Southeast 389 448 10,100  Level FlightAware
03:57PM 42.2660 -88.2640 129° Southeast 389 448 10,100  Level FlightAware
03:58PM 42.2260 -88.1970 129° Southeast 372 428 10,100 -300 Level FlightAware
03:58PM 42.1940 -88.1450 130° Southeast 336 387 9,800 -840 Descending FlightAware
03:59PM 42.1710 -88.1190 140° Southeast 324 373 9,400 -1,440 Descending FlightAware
03:59PM 42.1430 -88.0850 138° Southeast 318 366 8,700 -1,500 Descending FlightAware
03:59PM 42.1190 -88.0580 140° Southeast 315 362 8,200 -900 Descending FlightAware
04:04PM 42.0600 -87.6930 102° East 231 266 4,700 -960 Descending FlightAware
04:04PM 42.0290 -87.7210 214° Southwest 213 245 3,800 -1,740 Descending FlightAware
04:04PM 42.0200 -87.7380 235° Southwest 203 234 3,500 -1,320 Descending FlightAware
04:05PM 42.0070 -87.7640 236° Southwest 182 209 2,900 -1,080 Descending FlightAware
04:06PM 42.0030 -87.8410 266° West 145 167 1,600 -840 Descending FlightAware
04:07PM 42.0030 -87.8980 270° West 148 170 900 -720 Descending FlightAware
04:08PM 42.0030 -87.9200 270° West 68 78 -1,980 Descending FlightAware
04:08PM 42.0030 -87.9300 270° West 68 78  Level FlightAware